createdAt,value
2023-02-16T00:01:53.820Z,102513.41
2023-02-16T00:04:26.558Z,102518.28
2023-02-16T00:06:54.729Z,102514.03
2023-02-16T00:09:22.869Z,102509.13
2023-02-16T00:12:09.310Z,102514.81
2023-02-16T00:14:37.439Z,102518.38
2023-02-16T00:17:05.614Z,102513.94
2023-02-16T00:19:37.867Z,102511.47
2023-02-16T00:22:05.741Z,102509.66
2023-02-16T00:24:32.469Z,102508.72
2023-02-16T00:27:00.432Z,102519.56
2023-02-16T00:29:28.135Z,102508.34
2023-02-16T00:31:55.873Z,102515.44
2023-02-16T00:34:30.475Z,102519.84
2023-02-16T00:36:58.414Z,102516.25
2023-02-16T00:39:26.152Z,102515.94
2023-02-16T00:41:55.563Z,102512.56
2023-02-16T00:44:38.923Z,102512.38
2023-02-16T00:47:32.236Z,102504.75
2023-02-16T00:49:58.688Z,102503.28
2023-02-16T00:52:33.315Z,102498.75
2023-02-16T00:55:02.542Z,102509.66
2023-02-16T00:57:34.046Z,102500.19
2023-02-16T01:00:06.324Z,102504.31
2023-02-16T01:02:32.751Z,102502.84
2023-02-16T01:04:59.165Z,102492.56
2023-02-16T01:07:44.306Z,102497.44
2023-02-16T01:10:29.734Z,102499.19
2023-02-16T01:12:56.201Z,102487.03
2023-02-16T01:15:25.846Z,102482.63
2023-02-16T01:17:52.709Z,102482.72
2023-02-16T01:20:22.646Z,102492.91
2023-02-16T01:22:49.026Z,102495.38
2023-02-16T01:25:15.778Z,102489.53
2023-02-16T01:27:43.456Z,102486.84
2023-02-16T01:30:16.178Z,102480.16
2023-02-16T01:32:42.665Z,102481.91
2023-02-16T01:35:10.240Z,102488.91
2023-02-16T01:37:36.641Z,102481.47
2023-02-16T01:40:03.839Z,102481.56
2023-02-16T01:42:51.669Z,102474.66
2023-02-16T01:45:28.974Z,102474.78
2023-02-16T01:48:02.333Z,102475.72
2023-02-16T01:50:52.332Z,102474.88
2023-02-16T01:53:26.683Z,102474.88
2023-02-16T01:55:58.122Z,102463.97
2023-02-16T01:58:47.577Z,102459.25
2023-02-16T02:01:39.170Z,102461.72
2023-02-16T02:04:57.306Z,102458.06
2023-02-16T02:07:45.674Z,102452.72
2023-02-16T02:10:30.466Z,102452.59
2023-02-16T02:13:04.017Z,102452.50
2023-02-16T02:15:32.413Z,102453.22
2023-02-16T02:17:59.018Z,102442.94
2023-02-16T02:21:00.210Z,102453.75
2023-02-16T02:23:48.124Z,102444.81
2023-02-16T02:26:56.221Z,102440.72
2023-02-16T02:29:28.792Z,102442.06
2023-02-16T02:32:08.402Z,102432.50
2023-02-16T02:34:56.186Z,102434.56
2023-02-16T02:37:33.765Z,102434.47
2023-02-16T02:40:21.438Z,102425.34
2023-02-16T02:43:03.001Z,102436.22
2023-02-16T02:45:34.700Z,102422.66
2023-02-16T02:48:01.121Z,102422.31
2023-02-16T02:51:06.570Z,102420.38
2023-02-16T02:53:50.480Z,102423.56
2023-02-16T02:56:36.550Z,102416.75
2023-02-16T02:59:27.953Z,102412.22
2023-02-16T03:01:59.431Z,102414.69
2023-02-16T03:04:29.436Z,102417.06
2023-02-16T03:06:58.843Z,102405.97
2023-02-16T03:09:25.699Z,102407.63
2023-02-16T03:12:13.953Z,102406.56
2023-02-16T03:14:46.498Z,102400.41
2023-02-16T03:17:34.547Z,102399.56
2023-02-16T03:20:22.703Z,102392.56
2023-02-16T03:23:07.937Z,102390.00
2023-02-16T03:25:55.767Z,102388.03
2023-02-16T03:28:44.458Z,102388.94
2023-02-16T03:31:15.442Z,102381.72
2023-02-16T03:33:42.841Z,102391.81
2023-02-16T03:36:09.794Z,102386.47
2023-02-16T03:38:37.639Z,102384.72
2023-02-16T03:41:04.642Z,102394.19
2023-02-16T03:43:31.770Z,102401.00
2023-02-16T03:45:58.390Z,102390.38
2023-02-16T03:48:24.886Z,102384.28
2023-02-16T03:50:51.306Z,102385.81
2023-02-16T03:53:19.080Z,102392.63
2023-02-16T03:55:47.981Z,102391.69
2023-02-16T03:58:17.175Z,102395.09
2023-02-16T04:00:44.185Z,102397.59
2023-02-16T04:03:11.266Z,102397.34
2023-02-16T04:05:38.489Z,102404.97
2023-02-16T04:08:06.990Z,102404.97
2023-02-16T04:10:33.502Z,102408.16
2023-02-16T04:12:59.945Z,102407.31
2023-02-16T04:15:28.754Z,102399.69
2023-02-16T04:17:55.358Z,102405.38
2023-02-16T04:20:24.805Z,102414.84
2023-02-16T04:22:51.496Z,102402.66
2023-02-16T04:25:18.856Z,102405.13
2023-02-16T04:27:46.216Z,102405.88
2023-02-16T04:30:16.988Z,102404.94
2023-02-16T04:32:43.771Z,102399.78
2023-02-16T04:35:10.730Z,102395.34
2023-02-16T04:37:37.264Z,102395.16
2023-02-16T04:40:05.569Z,102392.31
2023-02-16T04:42:32.308Z,102395.63
2023-02-16T04:44:58.712Z,102405.00
2023-02-16T04:47:26.683Z,102402.31
2023-02-16T04:49:53.751Z,102401.38
2023-02-16T04:52:20.577Z,102405.63
2023-02-16T04:54:47.044Z,102396.13
2023-02-16T04:57:13.450Z,102396.13
2023-02-16T04:59:39.824Z,102389.22
2023-02-16T05:02:06.419Z,102390.88
2023-02-16T05:04:33.361Z,102394.38
2023-02-16T05:07:00.142Z,102392.50
2023-02-16T05:09:26.630Z,102389.81
2023-02-16T05:12:11.769Z,102390.66
2023-02-16T05:14:46.896Z,102373.31
2023-02-16T05:17:19.380Z,102374.97
2023-02-16T05:19:51.904Z,102374.03
2023-02-16T05:22:19.035Z,102373.22
2023-02-16T05:24:45.608Z,102364.56
2023-02-16T05:27:18.527Z,102373.22
2023-02-16T05:29:45.202Z,102373.69
2023-02-16T05:32:11.711Z,102367.72
2023-02-16T05:34:38.338Z,102355.66
2023-02-16T05:37:04.872Z,102353.88
2023-02-16T05:39:31.453Z,102355.66
2023-02-16T05:41:57.901Z,102366.88
2023-02-16T05:44:24.460Z,102371.00
2023-02-16T05:46:50.948Z,102371.81
2023-02-16T05:49:17.977Z,102370.19
2023-02-16T05:51:45.235Z,102375.25
2023-02-16T05:54:17.080Z,102376.16
2023-02-16T05:56:48.615Z,102369.34
2023-02-16T05:59:16.049Z,102362.56
2023-02-16T06:01:42.666Z,102358.22
2023-02-16T06:04:10.687Z,102368.53
2023-02-16T06:06:38.661Z,102376.38
2023-02-16T06:09:06.524Z,102376.38
2023-02-16T06:11:36.372Z,102367.84
2023-02-16T06:14:08.462Z,102367.13
2023-02-16T06:16:36.696Z,102373.09
2023-02-16T06:19:03.780Z,102375.69
2023-02-16T06:21:30.465Z,102381.66
2023-02-16T06:23:57.079Z,102383.31
2023-02-16T06:26:23.866Z,102385.88
2023-02-16T06:28:50.421Z,102381.66
2023-02-16T06:31:17.388Z,102380.72
2023-02-16T06:33:44.582Z,102379.91
2023-02-16T06:36:11.583Z,102381.66
2023-02-16T06:38:38.129Z,102379.06
2023-02-16T06:41:05.146Z,102384.22
2023-02-16T06:43:32.081Z,102386.69
2023-02-16T06:45:58.698Z,102383.19
2023-02-16T06:48:25.374Z,102388.34
2023-02-16T06:50:52.123Z,102389.97
2023-02-16T06:53:18.739Z,102381.31
2023-02-16T06:55:45.947Z,102376.97
2023-02-16T06:58:13.048Z,102375.25
2023-02-16T07:00:39.645Z,102380.50
2023-02-16T07:03:06.214Z,102382.13
2023-02-16T07:05:32.644Z,102379.44
2023-02-16T07:07:59.021Z,102381.09
2023-02-16T07:10:25.422Z,102384.28
2023-02-16T07:12:51.799Z,102389.22
2023-02-16T07:15:18.243Z,102388.19
2023-02-16T07:17:44.663Z,102397.31
2023-02-16T07:20:12.740Z,102395.34
2023-02-16T07:22:39.261Z,102393.50
2023-02-16T07:25:06.139Z,102401.94
2023-02-16T07:27:32.540Z,102405.09
2023-02-16T07:29:58.915Z,102404.06
2023-02-16T07:32:25.343Z,102397.84
2023-02-16T07:34:51.750Z,102400.31
2023-02-16T07:37:18.121Z,102402.69
2023-02-16T07:39:44.490Z,102406.69
2023-02-16T07:42:10.835Z,102404.81
2023-02-16T07:44:37.217Z,102408.09
2023-02-16T07:47:03.565Z,102412.22
2023-02-16T07:49:29.951Z,102411.16
2023-02-16T07:51:56.373Z,102415.28
2023-02-16T07:54:22.777Z,102411.59
2023-02-16T07:56:49.189Z,102413.22
2023-02-16T07:59:16.943Z,102416.53
2023-02-16T08:01:43.329Z,102415.44
2023-02-16T08:04:09.748Z,102416.16
2023-02-16T08:06:36.119Z,102422.03
2023-02-16T08:09:02.529Z,102422.63
2023-02-16T08:11:29.013Z,102425.91
2023-02-16T08:13:55.635Z,102435.09
2023-02-16T08:16:25.013Z,102435.78
2023-02-16T08:18:52.273Z,102430.50
2023-02-16T08:21:24.830Z,102427.72
2023-02-16T08:23:55.546Z,102427.47
2023-02-16T08:26:23.435Z,102430.75
2023-02-16T08:28:50.506Z,102434.78
2023-02-16T08:31:23.280Z,102435.34
2023-02-16T08:33:50.831Z,102432.53
2023-02-16T08:36:25.427Z,102437.47
2023-02-16T08:38:53.486Z,102432.91
2023-02-16T08:41:22.042Z,102431.03
2023-02-16T08:43:49.172Z,102442.16
2023-02-16T08:46:16.374Z,102440.31
2023-02-16T08:48:45.055Z,102443.59
2023-02-16T08:51:17.706Z,102437.34
2023-02-16T08:53:45.292Z,102449.22
2023-02-16T08:56:11.909Z,102438.78
2023-02-16T08:58:38.780Z,102448.19
2023-02-16T09:01:10.039Z,102442.16
2023-02-16T09:03:38.421Z,102441.34
2023-02-16T09:06:06.334Z,102443.81
2023-02-16T09:08:33.265Z,102445.59
2023-02-16T09:11:05.709Z,102445.72
2023-02-16T09:13:36.412Z,102449.09
2023-02-16T09:16:11.440Z,102451.00
2023-02-16T09:18:39.325Z,102452.03
2023-02-16T09:21:10.986Z,102449.56
2023-02-16T09:23:38.777Z,102448.75
2023-02-16T09:26:09.721Z,102449.09
2023-02-16T09:28:38.160Z,102455.19
2023-02-16T09:31:20.188Z,102459.66
2023-02-16T09:33:46.871Z,102461.75
2023-02-16T09:36:13.936Z,102439.34
2023-02-16T09:38:40.874Z,102441.09
2023-02-16T09:41:22.764Z,102421.16
2023-02-16T09:43:57.680Z,102430.31
2023-02-16T09:46:26.007Z,102433.72
2023-02-16T09:48:53.092Z,102446.41
2023-02-16T09:51:34.759Z,102450.53
2023-02-16T09:54:31.868Z,102444.41
2023-02-16T09:57:08.235Z,102446.88
2023-02-16T09:59:40.975Z,102456.97
2023-02-16T10:02:32.548Z,102458.00
2023-02-16T10:05:17.350Z,102452.59
2023-02-16T10:07:58.834Z,102452.00
2023-02-16T10:10:58.197Z,102460.84
2023-02-16T10:13:49.521Z,102460.00
2023-02-16T10:16:22.950Z,102464.44
2023-02-16T10:18:53.730Z,102468.69
2023-02-16T10:21:26.074Z,102460.72
2023-02-16T10:23:57.589Z,102456.03
2023-02-16T10:26:42.766Z,102452.72
2023-02-16T10:29:18.956Z,102454.63
2023-02-16T10:31:54.538Z,102450.53
2023-02-16T10:34:48.874Z,102452.63
2023-02-16T10:37:42.566Z,102446.06
2023-02-16T10:40:26.357Z,102446.97
2023-02-16T10:43:11.272Z,102449.22
2023-02-16T10:45:51.943Z,102454.59
2023-02-16T10:48:20.949Z,102446.38
2023-02-16T10:51:12.816Z,102452.56
2023-02-16T10:53:44.531Z,102449.63
2023-02-16T10:56:37.312Z,102456.09
2023-02-16T10:59:07.870Z,102447.38
2023-02-16T11:01:43.430Z,102445.53
2023-02-16T11:04:29.387Z,102446.22
2023-02-16T11:07:09.637Z,102439.59
2023-02-16T11:09:37.231Z,102435.47
2023-02-16T11:12:15.617Z,102437.41
2023-02-16T11:14:49.435Z,102444.00
2023-02-16T11:17:18.219Z,102434.47
2023-02-16T11:20:05.771Z,102430.69
2023-02-16T11:22:39.681Z,102419.00
2023-02-16T11:25:18.205Z,102415.13
2023-02-16T11:27:55.304Z,102414.50
2023-02-16T11:30:29.505Z,102408.09
2023-02-16T11:32:57.206Z,102409.25
2023-02-16T11:35:23.658Z,102410.75
2023-02-16T11:37:50.583Z,102398.38
2023-02-16T11:40:31.797Z,102393.97
2023-02-16T11:43:00.235Z,102401.19
2023-02-16T11:45:31.503Z,102394.94
2023-02-16T11:48:13.774Z,102406.41
2023-02-16T11:50:56.922Z,102401.59
2023-02-16T11:53:27.523Z,102396.41
2023-02-16T11:56:27.334Z,102391.09
2023-02-16T11:59:04.655Z,102397.22
2023-02-16T12:01:41.938Z,102395.34
2023-02-16T12:04:31.333Z,102389.81
2023-02-16T12:07:16.539Z,102380.13
2023-02-16T12:09:49.069Z,102379.34
2023-02-16T12:12:40.291Z,102376.38
2023-02-16T12:15:32.897Z,102375.84
2023-02-16T12:18:47.014Z,102367.66
2023-02-16T12:21:46.396Z,102362.03
2023-02-16T12:24:20.885Z,102354.44
2023-02-16T12:26:54.256Z,102342.16
2023-02-16T12:29:45.936Z,102341.03
2023-02-16T12:32:30.358Z,102329.56
2023-02-16T12:35:17.842Z,102324.91
2023-02-16T12:37:56.672Z,102317.50
2023-02-16T12:40:49.973Z,102310.91
2023-02-16T12:43:28.409Z,102311.06
2023-02-16T12:46:00.261Z,102311.63
2023-02-16T12:49:14.999Z,102298.78
2023-02-16T12:51:53.683Z,102283.63
2023-02-16T12:54:42.881Z,102294.75
2023-02-16T12:57:26.140Z,102284.69
2023-02-16T13:00:02.633Z,102292.06
2023-02-16T13:02:36.982Z,102281.13
2023-02-16T13:05:10.800Z,102292.19
2023-02-16T13:07:49.334Z,102281.00
2023-02-16T13:10:30.585Z,102288.94
2023-02-16T13:13:02.853Z,102290.53
2023-02-16T13:15:43.427Z,102288.09
2023-02-16T13:18:21.969Z,102280.16
2023-02-16T13:20:53.862Z,102286.72
2023-02-16T13:23:49.300Z,102278.91
2023-02-16T13:26:33.841Z,102273.94
2023-02-16T13:29:23.171Z,102275.88
2023-02-16T13:32:21.137Z,102269.41
2023-02-16T13:35:17.053Z,102268.66
2023-02-16T13:37:58.677Z,102256.50
2023-02-16T13:40:42.361Z,102246.84
2023-02-16T13:43:31.071Z,102245.72
2023-02-16T13:45:59.661Z,102242.69
2023-02-16T13:48:30.907Z,102232.44
2023-02-16T13:51:16.607Z,102224.84
2023-02-16T13:53:51.526Z,102211.19
2023-02-16T13:56:30.739Z,102216.53
2023-02-16T13:59:21.055Z,102217.28
2023-02-16T14:01:53.628Z,102212.22
2023-02-16T14:04:23.036Z,102213.88
2023-02-16T14:07:10.238Z,102211.28
2023-02-16T14:09:39.844Z,102214.69
2023-02-16T14:12:09.434Z,102209.50
2023-02-16T14:14:43.831Z,102212.94
2023-02-16T14:17:26.017Z,102202.69
2023-02-16T14:19:59.397Z,102206.09
2023-02-16T14:22:48.774Z,102205.34
2023-02-16T14:25:24.361Z,102195.31
2023-02-16T14:27:58.722Z,102195.00
2023-02-16T14:30:34.228Z,102191.13
2023-02-16T14:33:12.770Z,102185.31
2023-02-16T14:35:41.999Z,102186.16
2023-02-16T14:38:23.490Z,102189.41
2023-02-16T14:41:03.159Z,102177.88
2023-02-16T14:43:47.300Z,102182.78
2023-02-16T14:46:55.655Z,102178.41
2023-02-16T14:49:28.316Z,102175.13
2023-02-16T14:52:13.865Z,102173.97
2023-02-16T14:54:50.926Z,102176.88
2023-02-16T14:57:49.711Z,102187.72
2023-02-16T15:00:34.338Z,102182.16
2023-02-16T15:03:22.963Z,102183.41
2023-02-16T15:05:59.096Z,102182.09
2023-02-16T15:08:35.020Z,102190.19
2023-02-16T15:12:01.174Z,102188.69
2023-02-16T15:14:31.335Z,102185.88
2023-02-16T15:16:58.212Z,102180.97
2023-02-16T15:19:29.975Z,102179.81
2023-02-16T15:22:18.345Z,102181.06
2023-02-16T15:24:54.805Z,102179.50
2023-02-16T15:27:23.390Z,102192.41
2023-02-16T15:30:17.194Z,102195.72
2023-02-16T15:32:52.249Z,102194.13
2023-02-16T15:35:25.705Z,102190.22
2023-02-16T15:38:07.113Z,102194.19
2023-02-16T15:40:35.178Z,102193.00
2023-02-16T15:43:10.020Z,102192.44
2023-02-16T15:45:38.110Z,102186.06
2023-02-16T15:48:15.330Z,102181.16
2023-02-16T15:50:43.387Z,102184.84
2023-02-16T15:53:34.884Z,102187.75
2023-02-16T15:56:04.836Z,102188.34
2023-02-16T15:58:32.888Z,102188.75
2023-02-16T16:01:00.439Z,102182.91
2023-02-16T16:03:27.092Z,102190.13
2023-02-16T16:05:58.926Z,102180.47
2023-02-16T16:08:27.755Z,102178.31
2023-02-16T16:10:55.347Z,102174.50
2023-02-16T16:13:26.500Z,102167.97
2023-02-16T16:15:57.968Z,102174.25
2023-02-16T16:18:50.227Z,102165.94
2023-02-16T16:21:23.882Z,102167.16
2023-02-16T16:24:00.979Z,102162.13
2023-02-16T16:26:29.811Z,102155.72
2023-02-16T16:28:56.934Z,102157.66
2023-02-16T16:31:23.443Z,102162.97
2023-02-16T16:33:57.651Z,102162.28
2023-02-16T16:36:46.832Z,102160.81
2023-02-16T16:39:16.180Z,102156.69
2023-02-16T16:41:45.617Z,102150.03
2023-02-16T16:44:26.353Z,102154.66
2023-02-16T16:46:52.793Z,102146.22
2023-02-16T16:49:19.788Z,102140.22
2023-02-16T16:51:52.222Z,102136.13
2023-02-16T16:54:40.487Z,102128.63
2023-02-16T16:57:15.590Z,102125.50
2023-02-16T16:59:41.945Z,102120.44
2023-02-16T17:02:10.976Z,102121.56
2023-02-16T17:04:37.439Z,102120.72
2023-02-16T17:07:03.861Z,102114.75
2023-02-16T17:09:30.242Z,102119.25
2023-02-16T17:11:56.683Z,102120.88
2023-02-16T17:14:26.372Z,102124.44
2023-02-16T17:16:55.075Z,102115.00
2023-02-16T17:19:23.258Z,102109.84
2023-02-16T17:21:50.000Z,102109.03
2023-02-16T17:24:16.819Z,102113.22
2023-02-16T17:26:43.444Z,102109.69
2023-02-16T17:29:09.787Z,102112.97
2023-02-16T17:31:36.278Z,102108.63
2023-02-16T17:34:02.800Z,102100.00
2023-02-16T17:36:29.275Z,102099.84
2023-02-16T17:38:55.788Z,102100.69
2023-02-16T17:41:25.770Z,102105.88
2023-02-16T17:43:52.510Z,102104.91
2023-02-16T17:46:31.807Z,102096.19
2023-02-16T17:48:58.253Z,102102.31
2023-02-16T17:51:25.504Z,102103.97
2023-02-16T17:53:51.943Z,102102.97
2023-02-16T17:56:21.602Z,102113.34
2023-02-16T17:58:48.458Z,102112.41
2023-02-16T18:01:16.668Z,102109.81
2023-02-16T18:03:43.422Z,102105.44
2023-02-16T18:06:14.701Z,102108.16
2023-02-16T18:08:41.215Z,102104.75
2023-02-16T18:11:07.616Z,102106.41
2023-02-16T18:13:34.876Z,102112.53
2023-02-16T18:16:03.815Z,102111.59
2023-02-16T18:18:30.648Z,102109.94
2023-02-16T18:20:57.130Z,102102.97
2023-02-16T18:23:23.597Z,102102.19
2023-02-16T18:25:49.961Z,102104.75
2023-02-16T18:28:18.877Z,102102.19
2023-02-16T18:30:47.728Z,102104.75
2023-02-16T18:33:14.334Z,102092.63
2023-02-16T18:35:41.316Z,102082.25
2023-02-16T18:38:07.931Z,102089.22
2023-02-16T18:40:34.362Z,102089.22
2023-02-16T18:43:00.893Z,102089.22
2023-02-16T18:45:27.324Z,102090.03
2023-02-16T18:47:53.691Z,102095.22
2023-02-16T18:50:20.231Z,102099.44
2023-02-16T18:52:47.180Z,102095.91
2023-02-16T18:55:15.157Z,102094.25
2023-02-16T18:57:42.176Z,102099.31
2023-02-16T19:00:10.522Z,102100.13
2023-02-16T19:02:37.125Z,102102.72
2023-02-16T19:05:04.137Z,102102.72
2023-02-16T19:07:30.544Z,102102.72
2023-02-16T19:09:56.968Z,102102.56
2023-02-16T19:12:23.560Z,102106.94
2023-02-16T19:14:49.970Z,102104.34
2023-02-16T19:17:16.406Z,102112.00
2023-02-16T19:19:42.866Z,102108.44
2023-02-16T19:22:09.492Z,102109.13
2023-02-16T19:24:35.869Z,102109.13
2023-02-16T19:27:02.995Z,102104.75
2023-02-16T19:29:29.411Z,102096.16
2023-02-16T19:31:55.951Z,102092.63
2023-02-16T19:34:22.454Z,102096.97
2023-02-16T19:36:48.924Z,102099.56
2023-02-16T19:39:15.389Z,102097.81
2023-02-16T19:41:43.804Z,102096.81
2023-02-16T19:44:14.392Z,102095.88
2023-02-16T19:46:41.507Z,102101.88
2023-02-16T19:49:08.152Z,102084.53
2023-02-16T19:51:34.547Z,102090.69
2023-02-16T19:54:00.946Z,102092.31
2023-02-16T19:56:27.524Z,102095.75
2023-02-16T19:58:55.948Z,102090.56
2023-02-16T20:01:25.361Z,102093.16
2023-02-16T20:03:52.951Z,102083.44
2023-02-16T20:06:31.377Z,102092.88
2023-02-16T20:08:59.769Z,102085.09
2023-02-16T20:11:28.876Z,102086.72
2023-02-16T20:13:56.133Z,102081.38
2023-02-16T20:16:23.731Z,102079.63
2023-02-16T20:18:50.619Z,102082.22
2023-02-16T20:21:19.820Z,102076.19
2023-02-16T20:23:48.004Z,102087.22
2023-02-16T20:26:18.922Z,102087.22
2023-02-16T20:28:45.688Z,102073.31
2023-02-16T20:31:16.576Z,102086.13
2023-02-16T20:33:44.235Z,102083.41
2023-02-16T20:36:11.349Z,102076.44
2023-02-16T20:38:38.223Z,102078.75
2023-02-16T20:41:05.422Z,102077.94
2023-02-16T20:43:32.281Z,102084.63
2023-02-16T20:45:59.925Z,102075.06
2023-02-16T20:48:27.149Z,102077.53
2023-02-16T20:50:59.477Z,102080.78
2023-02-16T20:53:28.871Z,102073.00
2023-02-16T20:56:04.847Z,102068.75
2023-02-16T20:58:32.309Z,102060.69
2023-02-16T21:00:58.756Z,102059.75
2023-02-16T21:03:25.440Z,102065.75
2023-02-16T21:05:51.908Z,102063.16
2023-02-16T21:08:18.366Z,102066.44
2023-02-16T21:10:44.761Z,102059.59
2023-02-16T21:13:11.171Z,102055.22
2023-02-16T21:15:37.629Z,102052.63
2023-02-16T21:18:05.096Z,102054.28
2023-02-16T21:20:31.665Z,102051.69
2023-02-16T21:22:58.189Z,102056.88
2023-02-16T21:25:24.897Z,102061.91
2023-02-16T21:27:51.313Z,102063.69
2023-02-16T21:30:18.025Z,102065.31
2023-02-16T21:32:44.640Z,102052.34
2023-02-16T21:35:11.066Z,102058.34
2023-02-16T21:37:38.610Z,102051.41
2023-02-16T21:40:25.771Z,102051.41
2023-02-16T21:42:52.819Z,102046.34
2023-02-16T21:45:19.245Z,102050.56
2023-02-16T21:48:05.548Z,102038.56
2023-02-16T21:50:36.587Z,102035.00
2023-02-16T21:53:04.627Z,102030.66
2023-02-16T21:55:50.196Z,102024.63
2023-02-16T21:58:16.901Z,102023.00
2023-02-16T22:00:43.894Z,102027.38
2023-02-16T22:03:12.590Z,102028.19
2023-02-16T22:05:39.029Z,102027.38
2023-02-16T22:08:05.648Z,102032.56
2023-02-16T22:10:34.227Z,102033.38
2023-02-16T22:13:00.875Z,102035.97
2023-02-16T22:15:27.389Z,102033.38
2023-02-16T22:17:53.807Z,102029.16
2023-02-16T22:20:20.649Z,102033.53
2023-02-16T22:22:47.306Z,102041.31
2023-02-16T22:25:14.174Z,102053.31
2023-02-16T22:27:40.688Z,102039.53
2023-02-16T22:30:08.282Z,102052.50
2023-02-16T22:32:34.900Z,102044.72
2023-02-16T22:35:01.299Z,102045.69
2023-02-16T22:37:27.754Z,102049.91
2023-02-16T22:39:55.152Z,102037.91
2023-02-16T22:42:22.256Z,102039.66
2023-02-16T22:44:49.047Z,102040.66
2023-02-16T22:47:15.543Z,102038.06
2023-02-16T22:49:41.991Z,102053.47
2023-02-16T22:52:10.994Z,102046.63
2023-02-16T22:54:38.045Z,102046.63
2023-02-16T22:57:04.737Z,102049.38
2023-02-16T22:59:31.134Z,102046.78
2023-02-16T23:01:57.520Z,102049.38
2023-02-16T23:04:24.142Z,102044.19
2023-02-16T23:06:50.595Z,102043.25
2023-02-16T23:09:22.216Z,102043.25
2023-02-16T23:11:49.898Z,102045.00
2023-02-16T23:14:17.733Z,102043.25
2023-02-16T23:16:46.507Z,102041.59
2023-02-16T23:19:16.868Z,102029.56
2023-02-16T23:21:43.643Z,102043.38
2023-02-16T23:24:15.534Z,102041.59
2023-02-16T23:26:42.605Z,102026.03
2023-02-16T23:29:09.443Z,102028.63
2023-02-16T23:31:38.195Z,102033.81
2023-02-16T23:34:05.840Z,102027.97
2023-02-16T23:36:33.780Z,102040.78
2023-02-16T23:39:05.781Z,102037.22
2023-02-16T23:41:32.220Z,102037.22
2023-02-16T23:44:00.958Z,102037.22
2023-02-16T23:46:28.072Z,102037.22
2023-02-16T23:48:54.546Z,102033.00
2023-02-16T23:51:20.941Z,102020.84
2023-02-16T23:53:47.508Z,102032.88
2023-02-16T23:56:26.516Z,102021.66
2023-02-16T23:58:57.038Z,102022.50
